Time;durP1;ratioP1;P1;durP2;ratioP2;P2;SDS_P1;SDS_P2;PMS_P1;PMS_P2;Temp;Humidity;BMP_temperature;BMP_pressure;BME280_temperature;BME280_humidity;BME280_pressure;Samples;Min_cycle;Max_cycle;Signal;HPM_P1;HPM_P2
2022/05/23 00:02:05;;;;;;;3.30;2.17;;;;;;;;;;5092748;28;20711;-75
2022/05/23 00:04:30;;;;;;;3.80;2.40;;;;;;;;;;5092542;28;20401;-74
2022/05/23 00:06:57;;;;;;;5.23;2.70;;;;;;;;;;5092778;28;20411;-73
2022/05/23 00:09:24;;;;;;;4.87;2.57;;;;;;;;;;5092433;28;20417;-75
2022/05/23 00:11:50;;;;;;;7.30;2.70;;;;;;;;;;5092634;28;20752;-75
2022/05/23 00:14:16;;;;;;;4.50;2.97;;;;;;;;;;5092124;28;20414;-73
2022/05/23 00:16:44;;;;;;;5.23;3.00;;;;;;;;;;5093802;28;20926;-75
2022/05/23 00:19:11;;;;;;;4.90;3.27;;;;;;;;;;5096246;28;20407;-73
2022/05/23 00:21:38;;;;;;;5.20;2.90;;;;;;;;;;5096069;28;20415;-75
2022/05/23 00:24:04;;;;;;;3.30;2.60;;;;;;;;;;5095602;28;20422;-75
2022/05/23 00:26:30;;;;;;;4.80;2.57;;;;;;;;;;5096028;28;20377;-74
2022/05/23 00:28:56;;;;;;;6.60;2.93;;;;;;;;;;5094911;28;20779;-73
2022/05/23 00:31:22;;;;;;;4.90;2.60;;;;;;;;;;5095767;28;20470;-74
2022/05/23 00:36:34;;;;;;;7.10;4.30;;;;;;;;;;5096132;28;20406;-76
2022/05/23 00:39:00;;;;;;;5.60;3.90;;;;;;;;;;5095981;28;20452;-75
2022/05/23 00:44:27;;;;;;;8.73;3.70;;;;;;;;;;5095544;28;20429;-73
2022/05/23 00:46:57;;;;;;;4.70;3.27;;;;;;;;;;5095923;28;20414;-75
2022/05/23 00:49:24;;;;;;;7.03;3.67;;;;;;;;;;5095668;28;20414;-74
2022/05/23 00:51:51;;;;;;;5.60;3.30;;;;;;;;;;5095726;28;20406;-74
2022/05/23 00:54:17;;;;;;;7.60;3.63;;;;;;;;;;5093917;28;20434;-75
2022/05/23 00:56:45;;;;;;;9.20;4.13;;;;;;;;;;5095448;28;20407;-76
2022/05/23 00:59:14;;;;;;;5.67;3.60;;;;;;;;;;5095491;28;20838;-75
2022/05/23 01:01:40;;;;;;;8.60;4.07;;;;;;;;;;5095376;28;20412;-75
2022/05/23 01:04:07;;;;;;;5.90;3.33;;;;;;;;;;5095181;28;20836;-75
2022/05/23 01:06:33;;;;;;;7.80;3.33;;;;;;;;;;5095385;28;20412;-75
2022/05/23 01:09:00;;;;;;;6.53;3.87;;;;;;;;;;5095492;28;20406;-75
2022/05/23 01:11:26;;;;;;;6.33;3.53;;;;;;;;;;5095155;28;20997;-73
2022/05/23 01:13:55;;;;;;;8.60;3.63;;;;;;;;;;5094801;28;20435;-75
2022/05/23 01:16:22;;;;;;;8.13;3.80;;;;;;;;;;5095065;28;20422;-76
2022/05/23 01:18:49;;;;;;;8.17;3.50;;;;;;;;;;5093846;28;20446;-75
2022/05/23 01:21:18;;;;;;;7.40;3.40;;;;;;;;;;5094976;28;20419;-75
2022/05/23 01:24:14;;;;;;;5.70;3.00;;;;;;;;;;5094509;28;20397;-75
2022/05/23 01:26:40;;;;;;;9.13;3.03;;;;;;;;;;5022960;28;20544;-75
2022/05/23 01:29:15;;;;;;;6.97;2.53;;;;;;;;;;5092990;28;20415;-74
2022/05/23 01:31:42;;;;;;;4.43;3.03;;;;;;;;;;5094609;28;20476;-74
2022/05/23 01:34:08;;;;;;;2.90;2.33;;;;;;;;;;5093084;28;20453;-74
2022/05/23 01:36:35;;;;;;;5.40;3.00;;;;;;;;;;5094619;28;20745;-74
2022/05/23 01:39:01;;;;;;;6.10;2.50;;;;;;;;;;5094863;28;20762;-74
2022/05/23 01:41:27;;;;;;;5.13;2.57;;;;;;;;;;5094820;28;20417;-75
2022/05/23 01:43:53;;;;;;;3.87;2.93;;;;;;;;;;5094268;28;20430;-74
2022/05/23 01:46:21;;;;;;;4.30;2.30;;;;;;;;;;5094832;28;20857;-74
2022/05/23 01:48:47;;;;;;;5.77;2.67;;;;;;;;;;5094309;28;20442;-74
2022/05/23 01:51:13;;;;;;;6.57;2.97;;;;;;;;;;5094412;28;20425;-75
2022/05/23 01:53:41;;;;;;;3.10;2.53;;;;;;;;;;5092627;28;20468;-75
2022/05/23 01:56:07;;;;;;;4.00;2.57;;;;;;;;;;5093189;28;20403;-75
2022/05/23 02:01:18;;;;;;;4.60;3.00;;;;;;;;;;5094677;28;20438;-74
2022/05/23 02:03:45;;;;;;;6.00;2.90;;;;;;;;;;5093957;28;20381;-74
2022/05/23 02:06:12;;;;;;;5.63;2.73;;;;;;;;;;5094165;28;20568;-75
2022/05/23 02:08:38;;;;;;;5.60;3.07;;;;;;;;;;5094123;28;20735;-75
2022/05/23 02:11:06;;;;;;;6.60;2.90;;;;;;;;;;5093931;28;20462;-74
2022/05/23 02:13:33;;;;;;;5.40;3.10;;;;;;;;;;5093662;28;20417;-75
2022/05/23 02:15:59;;;;;;;5.80;3.00;;;;;;;;;;5094111;28;20381;-75
2022/05/23 02:18:25;;;;;;;3.03;2.50;;;;;;;;;;5094001;28;20851;-75
2022/05/23 02:20:51;;;;;;;6.60;3.30;;;;;;;;;;5093805;28;20939;-75
2022/05/23 02:23:17;;;;;;;7.13;3.27;;;;;;;;;;5093519;28;20411;-73
2022/05/23 02:25:43;;;;;;;5.93;3.20;;;;;;;;;;5093668;28;20438;-75
2022/05/23 02:28:09;;;;;;;10.30;3.53;;;;;;;;;;5093909;28;20892;-74
2022/05/23 02:30:35;;;;;;;7.53;3.20;;;;;;;;;;5093662;28;20454;-74
2022/05/23 02:33:01;;;;;;;6.30;3.33;;;;;;;;;;5091971;28;20526;-74
2022/05/23 02:35:27;;;;;;;7.10;3.40;;;;;;;;;;5093720;28;20419;-75
2022/05/23 02:37:53;;;;;;;4.40;2.90;;;;;;;;;;5092458;28;20823;-75
2022/05/23 02:40:19;;;;;;;9.70;3.80;;;;;;;;;;5092753;28;20450;-75
2022/05/23 02:42:45;;;;;;;4.53;2.73;;;;;;;;;;5093472;28;20419;-74
2022/05/23 02:45:11;;;;;;;10.40;3.40;;;;;;;;;;5092994;28;20445;-75
2022/05/23 02:47:37;;;;;;;5.27;2.90;;;;;;;;;;5093482;28;20799;-74
2022/05/23 02:50:04;;;;;;;7.30;3.20;;;;;;;;;;5093582;28;20464;-74
2022/05/23 02:52:30;;;;;;;4.90;2.60;;;;;;;;;;5093636;28;20457;-73
2022/05/23 02:54:56;;;;;;;10.30;3.40;;;;;;;;;;5093087;28;20458;-74
2022/05/23 02:57:22;;;;;;;4.87;2.40;;;;;;;;;;5093163;28;20497;-76
2022/05/23 02:59:48;;;;;;;4.57;2.47;;;;;;;;;;5093396;28;20442;-74
2022/05/23 03:05:00;;;;;;;8.60;2.70;;;;;;;;;;5071361;28;20438;-77
2022/05/23 03:07:26;;;;;;;4.70;2.80;;;;;;;;;;5092087;28;20752;-73
2022/05/23 03:09:52;;;;;;;5.17;2.23;;;;;;;;;;5093207;28;20436;-76
2022/05/23 03:12:18;;;;;;;2.43;2.00;;;;;;;;;;5093351;28;20442;-74
2022/05/23 03:14:44;;;;;;;3.23;2.70;;;;;;;;;;5092661;28;20397;-74
2022/05/23 03:17:10;;;;;;;4.20;3.47;;;;;;;;;;5091802;28;20422;-76
2022/05/23 03:19:37;;;;;;;6.60;3.40;;;;;;;;;;5092829;28;20480;-75
2022/05/23 03:27:35;;;;;;;8.90;3.30;;;;;;;;;;5093166;28;21134;-74
2022/05/23 03:30:01;;;;;;;4.93;3.90;;;;;;;;;;5093033;28;20433;-74
2022/05/23 03:32:27;;;;;;;4.87;3.67;;;;;;;;;;5092851;28;20401;-73
2022/05/23 03:34:53;;;;;;;8.33;3.47;;;;;;;;;;5091374;28;20461;-75
2022/05/23 03:37:19;;;;;;;7.70;3.67;;;;;;;;;;5093051;28;20407;-74
2022/05/23 03:39:45;;;;;;;5.47;4.00;;;;;;;;;;5092875;28;20381;-75
2022/05/23 03:42:11;;;;;;;6.53;3.57;;;;;;;;;;5092975;28;20498;-74
2022/05/23 03:44:37;;;;;;;9.93;3.90;;;;;;;;;;5092729;28;20507;-73
2022/05/23 03:47:03;;;;;;;7.37;3.50;;;;;;;;;;5091746;28;20401;-73
2022/05/23 03:49:30;;;;;;;8.60;3.40;;;;;;;;;;5092817;28;20410;-75
2022/05/23 03:51:56;;;;;;;7.40;3.53;;;;;;;;;;5094443;28;20440;-75
2022/05/23 03:54:22;;;;;;;13.33;4.33;;;;;;;;;;5096355;28;20984;-74
2022/05/23 03:56:48;;;;;;;5.50;3.10;;;;;;;;;;5095368;28;20415;-75
2022/05/23 03:59:14;;;;;;;7.77;3.63;;;;;;;;;;5096847;28;20709;-76
2022/05/23 04:01:40;;;;;;;4.67;3.30;;;;;;;;;;5096748;28;20434;-74
2022/05/23 04:04:06;;;;;;;8.07;4.10;;;;;;;;;;5096039;28;20442;-74
2022/05/23 04:06:32;;;;;;;10.23;3.63;;;;;;;;;;5096643;28;20415;-74
2022/05/23 04:08:58;;;;;;;6.07;3.63;;;;;;;;;;5096405;28;20393;-75
2022/05/23 04:11:24;;;;;;;7.03;3.30;;;;;;;;;;5096478;28;20435;-75
2022/05/23 04:13:50;;;;;;;10.30;4.07;;;;;;;;;;5094750;28;20426;-75
2022/05/23 04:16:16;;;;;;;9.80;3.90;;;;;;;;;;5096353;28;20381;-76
2022/05/23 04:18:42;;;;;;;8.60;4.93;;;;;;;;;;5096246;28;20940;-75
2022/05/23 04:21:08;;;;;;;10.63;4.97;;;;;;;;;;5096173;28;20417;-75
2022/05/23 04:23:34;;;;;;;12.70;5.23;;;;;;;;;;5095719;28;20411;-76
2022/05/23 04:26:02;;;;;;;10.00;6.20;;;;;;;;;;5095990;28;20826;-76
2022/05/23 04:28:27;;;;;;;10.50;5.53;;;;;;;;;;5096065;28;20393;-74
2022/05/23 04:30:53;;;;;;;13.80;4.77;;;;;;;;;;5095798;28;20469;-76
2022/05/23 04:36:04;;;;;;;10.23;4.90;;;;;;;;;;5096093;28;20417;-75
2022/05/23 04:38:30;;;;;;;9.30;4.97;;;;;;;;;;5095971;28;20407;-74
2022/05/23 04:40:57;;;;;;;13.93;6.17;;;;;;;;;;5095965;28;20442;-75
2022/05/23 04:43:23;;;;;;;12.63;4.80;;;;;;;;;;5095452;28;20381;-75
2022/05/23 04:45:49;;;;;;;8.77;4.30;;;;;;;;;;5077580;28;20470;-75
2022/05/23 04:50:59;;;;;;;10.00;4.20;;;;;;;;;;5095792;28;20464;-75
2022/05/23 04:53:25;;;;;;;8.47;4.43;;;;;;;;;;5095243;28;20883;-75
2022/05/23 04:55:51;;;;;;;16.73;4.50;;;;;;;;;;5095589;28;20480;-75
2022/05/23 04:58:17;;;;;;;12.07;3.93;;;;;;;;;;5095236;28;20415;-75
2022/05/23 05:00:43;;;;;;;7.63;4.10;;;;;;;;;;5095512;28;20393;-75
2022/05/23 05:03:10;;;;;;;8.40;4.80;;;;;;;;;;5094132;28;20411;-75
2022/05/23 05:05:36;;;;;;;9.70;4.00;;;;;;;;;;5095338;28;20513;-75
2022/05/23 05:08:02;;;;;;;6.40;3.33;;;;;;;;;;5095230;28;21004;-75
2022/05/23 05:10:29;;;;;;;8.70;3.40;;;;;;;;;;5095044;28;20481;-75
2022/05/23 05:12:55;;;;;;;6.23;3.60;;;;;;;;;;5094897;28;20411;-75
2022/05/23 05:15:22;;;;;;;7.47;3.80;;;;;;;;;;5095163;28;20427;-75
2022/05/23 05:17:48;;;;;;;13.10;3.53;;;;;;;;;;5095161;28;20385;-74
2022/05/23 05:20:16;;;;;;;6.40;3.77;;;;;;;;;;5094988;28;20738;-75
2022/05/23 05:22:42;;;;;;;8.53;3.70;;;;;;;;;;5094825;28;20402;-75
2022/05/23 05:25:09;;;;;;;9.40;3.30;;;;;;;;;;5094488;28;20799;-74
2022/05/23 05:27:36;;;;;;;7.53;2.97;;;;;;;;;;5094781;28;20476;-75
2022/05/23 05:30:03;;;;;;;4.63;3.07;;;;;;;;;;5094683;28;20433;-73
2022/05/23 05:32:32;;;;;;;5.67;2.80;;;;;;;;;;5093219;28;20755;-74
2022/05/23 05:35:01;;;;;;;6.67;3.13;;;;;;;;;;5094369;28;20904;-75
2022/05/23 05:37:30;;;;;;;7.47;3.10;;;;;;;;;;5093466;28;20468;-74
2022/05/23 05:39:57;;;;;;;4.80;3.00;;;;;;;;;;5094634;28;20752;-73
2022/05/23 05:42:26;;;;;;;7.73;3.80;;;;;;;;;;5094532;28;20848;-74
2022/05/23 05:44:54;;;;;;;6.47;3.23;;;;;;;;;;5094075;28;20409;-75
2022/05/23 05:47:21;;;;;;;5.10;2.73;;;;;;;;;;5094430;28;20403;-74
2022/05/23 05:49:49;;;;;;;5.00;3.50;;;;;;;;;;5094618;28;20410;-75
2022/05/23 05:52:16;;;;;;;8.10;2.50;;;;;;;;;;5093326;28;20402;-75
2022/05/23 05:54:42;;;;;;;4.60;2.40;;;;;;;;;;5093828;28;20458;-75
2022/05/23 05:57:09;;;;;;;5.57;2.90;;;;;;;;;;5094418;28;20382;-76
2022/05/23 05:59:35;;;;;;;3.30;2.57;;;;;;;;;;5094074;28;20403;-75
2022/05/23 06:02:01;;;;;;;3.93;3.00;;;;;;;;;;5094264;28;20438;-75
2022/05/23 06:04:27;;;;;;;4.33;2.80;;;;;;;;;;5092480;28;20757;-75
2022/05/23 06:12:22;;;;;;;10.23;4.07;;;;;;;;;;5094473;28;20975;-75
2022/05/23 06:14:48;;;;;;;5.33;3.37;;;;;;;;;;5093451;28;20517;-75
2022/05/23 06:17:14;;;;;;;9.30;4.23;;;;;;;;;;5094268;28;20411;-75
2022/05/23 06:19:45;;;;;;;4.90;3.00;;;;;;;;;;5092778;28;20418;-75
2022/05/23 06:22:12;;;;;;;9.30;3.60;;;;;;;;;;5094052;28;20403;-75
2022/05/23 06:24:38;;;;;;;9.00;3.40;;;;;;;;;;5093474;28;20434;-76
2022/05/23 06:27:06;;;;;;;3.67;2.77;;;;;;;;;;5093770;28;20417;-76
2022/05/23 06:29:33;;;;;;;6.80;3.83;;;;;;;;;;5092480;28;20411;-75
2022/05/23 06:31:59;;;;;;;7.40;3.67;;;;;;;;;;5093636;28;20430;-76
2022/05/23 06:34:25;;;;;;;7.60;3.97;;;;;;;;;;5093332;28;20434;-76
2022/05/23 06:36:51;;;;;;;7.00;3.23;;;;;;;;;;5093574;28;20460;-77
2022/05/23 06:39:17;;;;;;;4.17;2.70;;;;;;;;;;5093563;28;20414;-74
2022/05/23 06:41:43;;;;;;;3.20;2.87;;;;;;;;;;5093556;28;20407;-75
2022/05/23 06:44:09;;;;;;;5.13;2.50;;;;;;;;;;5093153;28;20425;-74
2022/05/23 06:46:35;;;;;;;5.57;2.33;;;;;;;;;;5093429;28;20414;-75
2022/05/23 06:49:01;;;;;;;7.63;2.60;;;;;;;;;;5093320;28;20399;-76
2022/05/23 06:51:28;;;;;;;5.20;2.50;;;;;;;;;;5093392;28;20465;-75
2022/05/23 06:53:57;;;;;;;3.47;2.40;;;;;;;;;;5093289;28;20422;-75
2022/05/23 06:56:23;;;;;;;4.10;2.83;;;;;;;;;;5093625;28;20410;-74
2022/05/23 06:58:49;;;;;;;5.53;2.40;;;;;;;;;;5093518;28;20415;-76
2022/05/23 07:01:15;;;;;;;3.20;2.70;;;;;;;;;;5093365;28;20414;-74
2022/05/23 07:03:41;;;;;;;3.57;2.67;;;;;;;;;;5093117;28;20446;-76
2022/05/23 07:14:21;;;;;;;2.47;2.13;;;;;;;;;;5093185;28;20435;-75
2022/05/23 07:16:47;;;;;;;5.03;2.63;;;;;;;;;;5091912;28;20403;-75
2022/05/23 07:19:14;;;;;;;3.63;2.10;;;;;;;;;;5091870;28;20487;-75
2022/05/23 07:21:40;;;;;;;3.93;2.50;;;;;;;;;;5093175;28;20501;-75
2022/05/23 07:24:06;;;;;;;6.40;2.30;;;;;;;;;;5091635;28;20513;-75
2022/05/23 07:26:32;;;;;;;3.87;2.80;;;;;;;;;;5094304;28;20406;-75
2022/05/23 07:28:58;;;;;;;3.10;2.27;;;;;;;;;;5093919;28;20415;-75
2022/05/23 07:31:25;;;;;;;4.23;2.40;;;;;;;;;;5076675;28;20478;-75
2022/05/23 07:33:51;;;;;;;4.37;1.90;;;;;;;;;;5076517;28;20426;-74
2022/05/23 07:36:18;;;;;;;2.40;2.00;;;;;;;;;;5076726;28;20738;-73
2022/05/23 07:38:45;;;;;;;2.40;2.20;;;;;;;;;;5075512;28;20967;-76
2022/05/23 07:41:11;;;;;;;4.30;2.53;;;;;;;;;;5076683;28;20776;-75
2022/05/23 07:43:39;;;;;;;4.73;2.30;;;;;;;;;;5074800;28;20432;-74
2022/05/23 07:46:09;;;;;;;3.63;2.40;;;;;;;;;;5076798;28;20766;-74
2022/05/23 07:48:36;;;;;;;9.33;2.90;;;;;;;;;;5076633;28;20411;-75
2022/05/23 07:51:03;;;;;;;5.27;2.40;;;;;;;;;;5075414;28;20846;-76
2022/05/23 08:01:43;;;;;;;2.53;2.33;;;;;;;;;;5087128;28;20976;-75
2022/05/23 08:04:09;;;;;;;3.83;2.20;;;;;;;;;;5085376;28;20419;-75
2022/05/23 08:06:36;;;;;;;5.23;2.67;;;;;;;;;;5085287;28;20463;-76
2022/05/23 08:09:02;;;;;;;5.67;2.50;;;;;;;;;;5084219;28;20457;-75
2022/05/23 08:11:28;;;;;;;2.10;1.90;;;;;;;;;;5076390;28;20557;-74
2022/05/23 08:13:55;;;;;;;3.30;2.10;;;;;;;;;;5075807;28;20615;-75
2022/05/23 08:16:22;;;;;;;2.90;1.97;;;;;;;;;;5076462;28;20411;-76
2022/05/23 08:18:48;;;;;;;2.43;2.10;;;;;;;;;;5076316;28;20439;-74
2022/05/23 08:21:15;;;;;;;3.83;1.90;;;;;;;;;;5075988;28;20512;-73
2022/05/23 08:23:42;;;;;;;5.57;2.27;;;;;;;;;;5075532;28;20460;-77
2022/05/23 08:26:08;;;;;;;7.63;2.70;;;;;;;;;;5075895;28;20448;-77
2022/05/23 08:28:34;;;;;;;2.83;2.40;;;;;;;;;;5075939;28;20779;-76
2022/05/23 08:31:00;;;;;;;4.67;2.33;;;;;;;;;;5074444;28;20459;-76
2022/05/23 08:33:26;;;;;;;3.53;2.30;;;;;;;;;;5075373;28;20411;-75
2022/05/23 08:35:53;;;;;;;3.63;2.00;;;;;;;;;;5075488;28;20455;-74
2022/05/23 08:38:19;;;;;;;3.20;1.97;;;;;;;;;;5075755;28;20842;-74
2022/05/23 08:40:54;;;;;;;3.37;2.10;;;;;;;;;;5075678;28;20457;-75
2022/05/23 08:43:27;;;;;;;3.60;2.30;;;;;;;;;;5075326;28;20399;-75
2022/05/23 08:45:56;;;;;;;3.23;1.90;;;;;;;;;;5075283;28;20481;-75
2022/05/23 08:48:31;;;;;;;6.33;2.40;;;;;;;;;;5075577;28;20758;-76
2022/05/23 08:50:59;;;;;;;5.03;2.03;;;;;;;;;;5075491;28;20466;-75
2022/05/23 08:53:51;;;;;;;4.27;2.47;;;;;;;;;;5075137;28;20410;-75
2022/05/23 08:56:27;;;;;;;4.23;2.20;;;;;;;;;;5075370;28;20406;-74
2022/05/23 08:58:55;;;;;;;4.27;2.13;;;;;;;;;;5080628;28;20512;-74
2022/05/23 09:01:26;;;;;;;2.63;2.30;;;;;;;;;;5084791;28;20463;-76
2022/05/23 09:04:04;;;;;;;3.43;2.13;;;;;;;;;;5079333;28;20435;-74
2022/05/23 09:06:34;;;;;;;4.60;2.20;;;;;;;;;;5095508;28;20500;-74
2022/05/23 09:09:01;;;;;;;3.93;2.00;;;;;;;;;;5092348;28;20420;-75
2022/05/23 09:11:38;;;;;;;4.40;2.10;;;;;;;;;;5085449;28;20474;-75
2022/05/23 09:14:05;;;;;;;5.37;2.50;;;;;;;;;;5074777;28;20453;-75
2022/05/23 09:16:32;;;;;;;4.53;2.40;;;;;;;;;;5075039;28;20406;-75
2022/05/23 09:19:11;;;;;;;3.23;1.80;;;;;;;;;;5074973;28;20779;-75
2022/05/23 09:22:19;;;;;;;3.10;2.07;;;;;;;;;;5074749;28;20494;-73
2022/05/23 09:24:31;;;;;;;4.80;2.23;;;;;;;;;;5071214;28;20451;-77
2022/05/23 09:26:59;;;;;;;3.77;2.33;;;;;;;;;;5073711;28;20981;-75
2022/05/23 09:29:25;;;;;;;2.40;1.70;;;;;;;;;;5074636;28;20413;-76
2022/05/23 09:31:54;;;;;;;2.47;2.17;;;;;;;;;;5074484;28;21003;-74
2022/05/23 09:34:28;;;;;;;3.57;2.03;;;;;;;;;;5074066;28;20434;-75
2022/05/23 09:36:54;;;;;;;3.67;2.30;;;;;;;;;;5074519;28;20404;-77
2022/05/23 09:39:24;;;;;;;3.43;2.40;;;;;;;;;;5074564;28;20415;-76
2022/05/23 09:47:50;;;;;;;8.07;3.43;;;;;;;;;;5074507;28;20406;-76
2022/05/23 09:50:28;;;;;;;3.37;2.07;;;;;;;;;;5073713;28;20968;-77
2022/05/23 09:52:56;;;;;;;1.90;1.60;;;;;;;;;;5074064;28;20577;-76
2022/05/23 09:55:31;;;;;;;3.77;1.97;;;;;;;;;;5074426;28;20452;-75
2022/05/23 09:58:01;;;;;;;3.67;2.30;;;;;;;;;;5074287;28;20812;-76
2022/05/23 10:00:32;;;;;;;4.70;2.77;;;;;;;;;;5074183;28;20416;-74
2022/05/23 10:03:01;;;;;;;2.93;2.57;;;;;;;;;;5073875;28;20772;-75
2022/05/23 10:05:27;;;;;;;3.60;2.27;;;;;;;;;;5072725;28;20535;-75
2022/05/23 10:07:55;;;;;;;3.60;1.80;;;;;;;;;;5072745;28;20419;-76
2022/05/23 10:10:28;;;;;;;4.47;2.13;;;;;;;;;;5073799;28;20461;-75
2022/05/23 10:13:11;;;;;;;4.57;2.03;;;;;;;;;;5073543;28;20511;-75
2022/05/23 10:15:43;;;;;;;8.83;2.90;;;;;;;;;;5073854;28;20427;-77
2022/05/23 10:18:10;;;;;;;6.93;1.90;;;;;;;;;;5072950;28;20461;-76
2022/05/23 10:20:40;;;;;;;2.93;1.97;;;;;;;;;;5073727;28;20475;-77
2022/05/23 10:23:15;;;;;;;3.23;1.93;;;;;;;;;;5072133;28;20488;-76
2022/05/23 10:26:04;;;;;;;2.40;2.10;;;;;;;;;;5073670;28;20469;-76
2022/05/23 10:28:37;;;;;;;4.70;2.00;;;;;;;;;;5067912;28;20435;-76
2022/05/23 10:31:06;;;;;;;3.67;1.90;;;;;;;;;;5073210;28;20459;-77
2022/05/23 10:33:32;;;;;;;5.70;2.33;;;;;;;;;;5073084;28;20443;-76
2022/05/23 10:36:03;;;;;;;2.43;1.97;;;;;;;;;;5055515;28;20775;-75
2022/05/23 10:44:27;;;;;;;4.33;2.40;;;;;;;;;;5074741;28;20899;-75
2022/05/23 10:47:03;;;;;;;6.50;2.63;;;;;;;;;;5089358;28;20410;-76
2022/05/23 10:50:01;;;;;;;4.40;2.30;;;;;;;;;;5093319;28;20402;-76
2022/05/23 10:52:27;;;;;;;3.13;2.20;;;;;;;;;;5048786;28;20422;-76
2022/05/23 10:54:53;;;;;;;5.40;2.40;;;;;;;;;;5092870;28;20510;-77
2022/05/23 10:57:19;;;;;;;5.47;2.70;;;;;;;;;;5082208;28;20403;-75
2022/05/23 11:00:08;;;;;;;7.40;2.73;;;;;;;;;;5072838;28;20726;-75
2022/05/23 11:02:52;;;;;;;5.03;2.57;;;;;;;;;;5074979;28;20478;-76
2022/05/23 11:05:21;;;;;;;3.40;2.47;;;;;;;;;;5075887;28;20430;-76
2022/05/23 11:07:47;;;;;;;5.23;2.67;;;;;;;;;;5073129;28;20415;-74
2022/05/23 11:10:22;;;;;;;6.53;3.17;;;;;;;;;;5080738;28;20469;-75
2022/05/23 11:13:07;;;;;;;3.57;2.30;;;;;;;;;;5093364;28;20824;-76
2022/05/23 11:15:53;;;;;;;8.73;2.47;;;;;;;;;;5093258;28;20441;-75
2022/05/23 11:18:29;;;;;;;3.63;2.40;;;;;;;;;;5093369;28;20747;-75
2022/05/23 11:20:58;;;;;;;4.23;1.90;;;;;;;;;;5091818;28;20466;-75
2022/05/23 11:23:33;;;;;;;6.67;2.27;;;;;;;;;;5092907;28;20423;-75
2022/05/23 11:26:05;;;;;;;3.63;2.20;;;;;;;;;;5093177;28;20408;-76
2022/05/23 11:34:32;;;;;;;2.90;2.17;;;;;;;;;;5093065;28;20475;-75
2022/05/23 11:39:44;;;;;;;6.07;2.30;;;;;;;;;;5092901;28;20489;-76
2022/05/23 11:42:14;;;;;;;5.13;2.10;;;;;;;;;;5093012;28;20511;-77
2022/05/23 11:44:48;;;;;;;6.03;2.57;;;;;;;;;;5092630;28;20525;-76
2022/05/23 11:47:25;;;;;;;4.20;2.40;;;;;;;;;;5092865;28;20409;-76
2022/05/23 11:50:00;;;;;;;4.03;2.67;;;;;;;;;;5092795;28;20405;-76
2022/05/23 11:52:44;;;;;;;3.50;2.47;;;;;;;;;;5093039;28;20409;-75
2022/05/23 11:55:12;;;;;;;4.70;2.57;;;;;;;;;;5093113;28;20820;-75
2022/05/23 11:57:39;;;;;;;3.63;2.33;;;;;;;;;;5092937;28;20413;-76
2022/05/23 12:00:26;;;;;;;4.37;2.23;;;;;;;;;;5091685;28;20909;-74
2022/05/23 12:03:09;;;;;;;6.10;2.33;;;;;;;;;;5092687;28;20440;-76
2022/05/23 12:05:35;;;;;;;2.90;2.00;;;;;;;;;;5092826;28;20446;-76
2022/05/23 12:08:03;;;;;;;9.57;2.20;;;;;;;;;;5091836;28;20748;-75
2022/05/23 12:10:29;;;;;;;3.57;2.23;;;;;;;;;;5092704;28;20929;-74
2022/05/23 12:12:59;;;;;;;4.63;2.30;;;;;;;;;;5092675;28;20436;-75
2022/05/23 12:15:46;;;;;;;5.67;2.60;;;;;;;;;;5096197;28;20422;-75
2022/05/23 12:18:19;;;;;;;9.30;2.63;;;;;;;;;;5096625;28;20409;-75
2022/05/23 12:20:47;;;;;;;5.40;2.50;;;;;;;;;;5096370;28;20505;-75
2022/05/23 12:23:13;;;;;;;3.40;1.83;;;;;;;;;;5094534;28;20442;-75
2022/05/23 12:25:40;;;;;;;3.60;2.03;;;;;;;;;;5096049;28;20470;-76
2022/05/23 12:28:09;;;;;;;6.13;2.80;;;;;;;;;;5096136;28;20490;-74
2022/05/23 12:30:35;;;;;;;5.17;2.67;;;;;;;;;;5094960;28;20986;-76
2022/05/23 12:33:01;;;;;;;8.23;3.10;;;;;;;;;;5095589;28;20803;-75
2022/05/23 12:35:44;;;;;;;4.80;2.73;;;;;;;;;;5095888;28;20443;-75
2022/05/23 12:38:19;;;;;;;5.93;2.83;;;;;;;;;;5096379;28;20401;-76
2022/05/23 12:40:57;;;;;;;2.63;2.17;;;;;;;;;;5094716;28;20524;-76
2022/05/23 12:43:35;;;;;;;5.23;2.83;;;;;;;;;;5095596;28;20410;-75
2022/05/23 12:46:20;;;;;;;6.03;2.80;;;;;;;;;;5095597;28;20462;-73
2022/05/23 12:48:59;;;;;;;6.77;3.10;;;;;;;;;;5095731;28;20399;-75
2022/05/23 12:51:28;;;;;;;11.37;2.57;;;;;;;;;;5095789;28;20459;-76
2022/05/23 12:54:16;;;;;;;8.63;3.10;;;;;;;;;;5095123;28;20414;-76
2022/05/23 12:57:00;;;;;;;6.40;3.17;;;;;;;;;;5095690;28;20408;-76
2022/05/23 12:59:39;;;;;;;6.40;3.47;;;;;;;;;;5095731;28;20761;-75
2022/05/23 13:02:10;;;;;;;6.07;3.10;;;;;;;;;;5095561;28;20421;-76
2022/05/23 13:04:40;;;;;;;6.57;2.70;;;;;;;;;;5095240;28;20434;-75
2022/05/23 13:07:09;;;;;;;4.23;2.73;;;;;;;;;;5095696;28;20443;-76
2022/05/23 13:09:46;;;;;;;6.00;3.90;;;;;;;;;;5094570;28;20415;-74
2022/05/23 13:12:16;;;;;;;8.33;3.57;;;;;;;;;;5095619;28;20457;-75
2022/05/23 13:14:46;;;;;;;5.57;3.37;;;;;;;;;;5094565;28;20949;-77
2022/05/23 13:17:12;;;;;;;5.60;3.03;;;;;;;;;;5094754;28;20453;-77
2022/05/23 13:22:38;;;;;;;6.73;3.40;;;;;;;;;;5094487;28;20398;-78
2022/05/23 13:25:04;;;;;;;11.00;3.87;;;;;;;;;;5093461;28;20788;-76
2022/05/23 13:27:38;;;;;;;4.33;3.37;;;;;;;;;;5094364;28;20437;-77
2022/05/23 13:30:06;;;;;;;5.67;3.80;;;;;;;;;;5092859;28;20407;-77
2022/05/23 13:32:33;;;;;;;9.27;4.97;;;;;;;;;;5094223;28;20739;-75
2022/05/23 13:34:59;;;;;;;6.30;4.77;;;;;;;;;;5094072;28;20917;-77
2022/05/23 13:37:30;;;;;;;7.33;5.20;;;;;;;;;;5094406;28;20411;-76
2022/05/23 13:39:56;;;;;;;8.30;4.43;;;;;;;;;;5094164;28;20414;-77
2022/05/23 13:42:25;;;;;;;13.20;5.87;;;;;;;;;;5094325;28;20778;-78
2022/05/23 13:44:52;;;;;;;8.60;5.50;;;;;;;;;;5093705;28;20798;-77
2022/05/23 13:47:22;;;;;;;10.53;6.43;;;;;;;;;;5094269;28;20411;-75
2022/05/23 13:49:57;;;;;;;9.33;5.77;;;;;;;;;;5092788;28;20407;-79
2022/05/23 13:52:27;;;;;;;8.40;6.30;;;;;;;;;;5094044;28;20425;-74
2022/05/23 13:54:59;;;;;;;8.63;6.13;;;;;;;;;;5093724;28;20423;-77
2022/05/23 13:57:31;;;;;;;10.60;6.37;;;;;;;;;;5093904;28;20425;-77
2022/05/23 14:00:09;;;;;;;8.23;5.70;;;;;;;;;;5092957;28;20883;-74
2022/05/23 14:02:39;;;;;;;8.07;6.07;;;;;;;;;;5094149;28;20410;-76
2022/05/23 14:05:05;;;;;;;9.93;6.23;;;;;;;;;;5093494;28;20418;-76
2022/05/23 14:07:33;;;;;;;10.53;5.50;;;;;;;;;;5093926;28;20417;-75
2022/05/23 14:10:02;;;;;;;11.53;6.10;;;;;;;;;;5093593;28;20398;-76
2022/05/23 14:12:30;;;;;;;29.47;7.43;;;;;;;;;;5093606;28;20831;-76
2022/05/23 14:15:01;;;;;;;12.67;5.07;;;;;;;;;;5093355;28;20502;-75
2022/05/23 14:17:34;;;;;;;9.80;4.30;;;;;;;;;;5093696;28;20419;-77
2022/05/23 14:20:20;;;;;;;13.13;4.67;;;;;;;;;;5093542;28;20410;-75
2022/05/23 14:23:02;;;;;;;8.77;4.43;;;;;;;;;;5093273;28;20969;-76
2022/05/23 14:25:32;;;;;;;4.40;3.57;;;;;;;;;;5093539;28;20419;-75
2022/05/23 14:28:04;;;;;;;7.40;3.50;;;;;;;;;;5087194;28;20776;-76
2022/05/23 14:30:35;;;;;;;7.27;4.23;;;;;;;;;;5076707;28;20874;-76
2022/05/23 14:33:16;;;;;;;6.20;4.30;;;;;;;;;;5072739;28;20953;-75
2022/05/23 14:36:01;;;;;;;11.97;4.30;;;;;;;;;;5072912;28;20908;-75
2022/05/23 14:38:35;;;;;;;7.43;3.70;;;;;;;;;;5071546;28;20585;-74
2022/05/23 14:41:13;;;;;;;11.63;4.80;;;;;;;;;;5071608;28;20450;-77
2022/05/23 14:43:39;;;;;;;5.20;3.83;;;;;;;;;;5072488;28;20411;-76
2022/05/23 14:46:23;;;;;;;9.27;4.13;;;;;;;;;;5072640;28;20990;-76
2022/05/23 14:48:57;;;;;;;9.47;4.60;;;;;;;;;;5071247;28;20510;-76
2022/05/23 14:51:31;;;;;;;5.57;3.30;;;;;;;;;;5072823;28;20459;-77
2022/05/23 14:56:55;;;;;;;6.57;4.00;;;;;;;;;;5072827;28;20411;-76
2022/05/23 15:02:17;;;;;;;5.03;3.67;;;;;;;;;;5072813;28;20489;-75
2022/05/23 15:04:44;;;;;;;7.87;3.93;;;;;;;;;;5074165;28;20465;-78
2022/05/23 15:07:10;;;;;;;8.73;4.47;;;;;;;;;;5074755;28;20423;-75
2022/05/23 15:09:36;;;;;;;5.30;4.00;;;;;;;;;;5073185;28;20458;-75
2022/05/23 15:12:03;;;;;;;4.83;3.67;;;;;;;;;;5072520;28;20463;-75
2022/05/23 15:14:31;;;;;;;4.33;3.93;;;;;;;;;;5086853;28;20449;-74
2022/05/23 15:16:57;;;;;;;5.80;4.20;;;;;;;;;;5090927;28;20925;-78
2022/05/23 15:19:23;;;;;;;5.30;4.80;;;;;;;;;;5078455;28;20428;-80
2022/05/23 15:21:49;;;;;;;12.73;5.60;;;;;;;;;;5077169;28;20985;-76
2022/05/23 15:24:15;;;;;;;11.53;5.40;;;;;;;;;;5092125;28;20435;-76
2022/05/23 15:26:43;;;;;;;8.80;5.90;;;;;;;;;;5075769;28;20527;-77
2022/05/23 15:29:09;;;;;;;12.67;7.53;;;;;;;;;;5080026;28;20542;-78
2022/05/23 15:31:48;;;;;;;6.90;5.87;;;;;;;;;;5092489;28;20469;-77
2022/05/23 15:34:14;;;;;;;8.67;5.80;;;;;;;;;;5072013;28;20439;-75
2022/05/23 15:36:40;;;;;;;6.97;5.83;;;;;;;;;;5082560;28;20709;-76
2022/05/23 15:39:06;;;;;;;10.77;6.13;;;;;;;;;;5078183;28;20747;-76
2022/05/23 15:41:34;;;;;;;11.37;5.57;;;;;;;;;;5076037;28;20401;-78
2022/05/23 15:43:59;;;;;;;8.00;5.70;;;;;;;;;;5081349;28;20450;-76
2022/05/23 15:46:26;;;;;;;14.80;5.50;;;;;;;;;;5092343;28;20422;-78
2022/05/23 15:48:52;;;;;;;7.50;4.60;;;;;;;;;;5077759;28;20427;-77
2022/05/23 15:51:18;;;;;;;5.43;4.40;;;;;;;;;;5083300;28;20433;-77
2022/05/23 15:53:45;;;;;;;6.30;3.90;;;;;;;;;;5095665;28;20807;-77
2022/05/23 15:56:12;;;;;;;11.63;4.63;;;;;;;;;;5082078;28;20397;-77
2022/05/23 15:58:39;;;;;;;7.10;5.07;;;;;;;;;;5094662;28;20921;-76
2022/05/23 16:01:05;;;;;;;7.03;4.43;;;;;;;;;;5086095;28;20513;-77
2022/05/23 16:03:31;;;;;;;7.03;4.97;;;;;;;;;;5076228;28;20874;-75
2022/05/23 16:05:57;;;;;;;6.17;5.03;;;;;;;;;;5096223;28;20438;-75